createdAt,value
2022-12-09T00:01:42.534Z,42.70
2022-12-09T00:04:10.677Z,32.17
2022-12-09T00:06:38.468Z,37.03
2022-12-09T00:09:06.557Z,42.95
2022-12-09T00:11:34.370Z,34.80
2022-12-09T00:14:02.247Z,43.00
2022-12-09T00:16:30.386Z,37.78
2022-12-09T00:18:58.659Z,35.38
2022-12-09T00:21:30.170Z,36.40
2022-12-09T00:23:59.737Z,41.22
2022-12-09T00:26:28.226Z,38.17
2022-12-09T00:28:56.690Z,32.97
2022-12-09T00:31:27.026Z,32.22
2022-12-09T00:34:00.371Z,33.33
2022-12-09T00:36:28.523Z,35.55
2022-12-09T00:38:57.879Z,33.83
2022-12-09T00:41:26.436Z,32.28
2022-12-09T00:43:55.062Z,37.47
2022-12-09T00:46:23.212Z,36.95
2022-12-09T00:48:51.335Z,36.08
2022-12-09T00:51:21.854Z,33.90
2022-12-09T00:54:01.520Z,36.63
2022-12-09T00:56:30.631Z,37.85
2022-12-09T00:58:59.324Z,31.10
2022-12-09T01:01:28.486Z,39.53
2022-12-09T01:03:57.125Z,33.70
2022-12-09T01:06:26.645Z,33.03
2022-12-09T01:08:54.582Z,36.97
2022-12-09T01:11:25.934Z,30.58
2022-12-09T01:13:54.693Z,39.25
2022-12-09T01:16:25.192Z,33.22
2022-12-09T01:18:59.533Z,60.95
2022-12-09T01:21:31.060Z,34.83
2022-12-09T01:23:58.846Z,39.88
2022-12-09T01:26:27.096Z,35.78
2022-12-09T01:28:57.537Z,31.05
2022-12-09T01:31:26.099Z,33.83
2022-12-09T01:33:56.427Z,28.35
2022-12-09T01:36:28.061Z,35.95
2022-12-09T01:38:59.048Z,32.42
2022-12-09T01:41:28.757Z,36.58
2022-12-09T01:44:18.117Z,29.77
2022-12-09T01:46:47.050Z,28.92
2022-12-09T01:49:24.062Z,33.42
2022-12-09T01:52:19.069Z,38.92
2022-12-09T01:54:50.137Z,34.78
2022-12-09T01:57:18.103Z,37.75
2022-12-09T01:59:46.576Z,30.13
2022-12-09T02:02:18.304Z,35.17
2022-12-09T02:04:49.728Z,35.17
2022-12-09T02:07:19.383Z,32.25
2022-12-09T02:09:53.479Z,32.95
2022-12-09T02:12:49.674Z,33.92
2022-12-09T02:15:28.617Z,41.00
2022-12-09T02:18:01.827Z,33.30
2022-12-09T02:20:44.168Z,34.30
2022-12-09T02:23:28.586Z,37.22
2022-12-09T02:26:08.484Z,37.75
2022-12-09T02:29:01.221Z,38.40
2022-12-09T02:31:46.901Z,35.03
2022-12-09T02:34:22.297Z,34.97
2022-12-09T02:37:19.615Z,37.05
2022-12-09T02:40:02.956Z,33.78
2022-12-09T02:42:36.694Z,36.70
2022-12-09T02:45:08.834Z,38.30
2022-12-09T02:47:43.207Z,35.22
2022-12-09T02:50:17.876Z,37.78
2022-12-09T02:52:47.271Z,36.30
2022-12-09T02:55:18.542Z,32.92
2022-12-09T02:57:51.151Z,33.60
2022-12-09T03:00:20.444Z,38.92
2022-12-09T03:02:51.757Z,35.35
2022-12-09T03:05:36.146Z,35.08
2022-12-09T03:08:15.787Z,35.50
2022-12-09T03:10:53.471Z,34.45
2022-12-09T03:13:24.147Z,30.48
2022-12-09T03:15:58.276Z,35.33
2022-12-09T03:18:29.612Z,35.55
2022-12-09T03:20:58.031Z,41.42
2022-12-09T03:23:29.025Z,41.90
2022-12-09T03:25:58.621Z,37.53
2022-12-09T03:28:33.562Z,36.90
2022-12-09T03:31:05.137Z,36.80
2022-12-09T03:33:33.445Z,34.85
2022-12-09T03:36:06.406Z,37.28
2022-12-09T03:38:40.149Z,36.13
2022-12-09T03:41:26.369Z,33.10
2022-12-09T03:44:01.828Z,42.55
2022-12-09T03:46:30.588Z,35.40
2022-12-09T03:49:00.474Z,36.08
2022-12-09T03:51:38.344Z,38.15
2022-12-09T03:54:15.581Z,30.85
2022-12-09T03:56:48.036Z,35.03
2022-12-09T03:59:16.809Z,34.55
2022-12-09T04:01:46.402Z,40.85
2022-12-09T04:04:15.432Z,36.33
2022-12-09T04:06:43.792Z,36.78
2022-12-09T04:09:12.268Z,34.45
2022-12-09T04:11:39.999Z,37.25
2022-12-09T04:14:13.693Z,35.88
2022-12-09T04:16:44.522Z,33.95
2022-12-09T04:19:13.011Z,41.30
2022-12-09T04:21:41.098Z,34.58
2022-12-09T04:24:10.140Z,41.60
2022-12-09T04:26:38.169Z,63.35
2022-12-09T04:29:06.326Z,38.55
2022-12-09T04:31:34.278Z,35.42
2022-12-09T04:34:08.300Z,41.83
2022-12-09T04:36:38.088Z,40.75
2022-12-09T04:39:06.275Z,37.33
2022-12-09T04:41:33.948Z,31.55
2022-12-09T04:44:02.462Z,38.88
2022-12-09T04:46:33.216Z,35.83
2022-12-09T04:49:01.241Z,37.47
2022-12-09T04:51:32.538Z,31.67
2022-12-09T04:54:05.151Z,32.95
2022-12-09T04:56:33.118Z,37.40
2022-12-09T04:59:01.158Z,33.25
2022-12-09T05:01:31.589Z,33.78
2022-12-09T05:06:28.218Z,33.38
2022-12-09T05:08:56.162Z,37.97
2022-12-09T05:11:24.914Z,37.38
2022-12-09T05:13:56.596Z,33.67
2022-12-09T05:16:24.821Z,39.88
2022-12-09T05:18:53.137Z,29.85
2022-12-09T05:21:22.336Z,29.30
2022-12-09T05:23:50.454Z,34.08
2022-12-09T05:26:21.663Z,34.85
2022-12-09T05:28:51.008Z,33.85
2022-12-09T05:31:21.931Z,35.40
2022-12-09T05:33:51.786Z,34.40
2022-12-09T05:36:24.306Z,38.63
2022-12-09T05:38:52.601Z,32.17
2022-12-09T05:41:21.623Z,37.67
2022-12-09T05:43:50.003Z,33.33
2022-12-09T05:46:18.514Z,35.70
2022-12-09T05:48:46.871Z,35.88
2022-12-09T05:51:26.558Z,35.92
2022-12-09T05:53:55.767Z,43.40
2022-12-09T05:56:25.500Z,33.65
2022-12-09T05:58:54.777Z,31.90
2022-12-09T06:01:23.608Z,35.03
2022-12-09T06:03:53.113Z,36.10
2022-12-09T06:06:23.873Z,32.65
2022-12-09T06:08:56.516Z,34.30
2022-12-09T06:11:25.631Z,32.08
2022-12-09T06:13:54.750Z,33.63
2022-12-09T06:16:23.383Z,37.17
2022-12-09T06:18:52.590Z,36.25
2022-12-09T06:21:23.818Z,36.80
2022-12-09T06:23:52.872Z,38.95
2022-12-09T06:26:26.007Z,35.40
2022-12-09T06:28:54.859Z,37.20
2022-12-09T06:31:23.951Z,31.02
2022-12-09T06:33:55.832Z,40.13
2022-12-09T06:36:27.482Z,35.53
2022-12-09T06:38:56.673Z,32.47
2022-12-09T06:41:33.982Z,35.40
2022-12-09T06:44:02.006Z,34.40
2022-12-09T06:46:30.002Z,40.00
2022-12-09T06:48:58.487Z,39.55
2022-12-09T06:51:26.822Z,42.03
2022-12-09T06:53:55.276Z,33.55
2022-12-09T06:56:23.951Z,38.83
2022-12-09T06:58:52.202Z,39.42
2022-12-09T07:01:25.868Z,42.08
2022-12-09T07:03:56.881Z,37.83
2022-12-09T07:06:40.392Z,38.85
2022-12-09T07:09:17.976Z,40.83
2022-12-09T07:11:47.338Z,34.67
2022-12-09T07:14:18.437Z,36.67
2022-12-09T07:16:47.979Z,40.30
2022-12-09T07:19:21.306Z,43.90
2022-12-09T07:21:50.903Z,38.72
2022-12-09T07:24:20.270Z,38.40
2022-12-09T07:26:48.496Z,43.55
2022-12-09T07:29:17.230Z,49.67
2022-12-09T07:31:45.322Z,39.63
2022-12-09T07:34:13.664Z,38.25
2022-12-09T07:36:44.103Z,38.65
2022-12-09T07:39:15.474Z,41.83
2022-12-09T07:41:43.515Z,40.85
2022-12-09T07:44:12.077Z,38.20
2022-12-09T07:46:40.038Z,42.35
2022-12-09T07:49:26.581Z,38.10
2022-12-09T07:51:58.750Z,37.78
2022-12-09T07:57:08.191Z,39.25
2022-12-09T07:59:36.622Z,42.85
2022-12-09T08:02:06.570Z,40.35
2022-12-09T08:04:36.524Z,40.25
2022-12-09T08:07:04.672Z,44.05
2022-12-09T08:09:32.907Z,40.88
2022-12-09T08:12:01.113Z,44.20
2022-12-09T08:14:31.608Z,42.90
2022-12-09T08:16:59.535Z,45.63
2022-12-09T08:19:30.454Z,46.97
2022-12-09T08:21:59.200Z,40.33
2022-12-09T08:24:27.405Z,46.65
2022-12-09T08:26:55.802Z,47.17
2022-12-09T08:29:23.745Z,45.20
2022-12-09T08:31:51.553Z,44.97
2022-12-09T08:34:19.897Z,42.38
2022-12-09T08:36:47.751Z,46.97
2022-12-09T08:39:15.665Z,45.97
2022-12-09T08:41:44.629Z,45.35
2022-12-09T08:44:21.020Z,48.50
2022-12-09T08:46:51.913Z,58.38
2022-12-09T08:49:22.477Z,52.30
2022-12-09T08:51:52.560Z,48.42
2022-12-09T08:54:23.213Z,44.10
2022-12-09T08:56:55.126Z,49.95
2022-12-09T08:59:23.899Z,47.95
2022-12-09T09:01:51.832Z,50.50
2022-12-09T09:04:21.866Z,54.47
2022-12-09T09:06:51.605Z,52.92
2022-12-09T09:09:21.108Z,51.67
2022-12-09T09:11:49.602Z,43.33
2022-12-09T09:14:17.505Z,47.28
2022-12-09T09:16:46.286Z,52.85
2022-12-09T09:19:20.629Z,54.85
2022-12-09T09:21:49.046Z,58.20
2022-12-09T09:24:20.015Z,49.17
2022-12-09T09:26:49.325Z,53.45
2022-12-09T09:29:19.901Z,74.47
2022-12-09T09:31:54.582Z,53.88
2022-12-09T09:34:24.094Z,58.30
2022-12-09T09:36:55.784Z,51.92
2022-12-09T09:39:24.055Z,55.35
2022-12-09T09:41:56.348Z,50.72
2022-12-09T09:44:24.757Z,59.03
2022-12-09T09:46:54.540Z,56.38
2022-12-09T09:50:07.759Z,61.65
2022-12-09T09:52:38.844Z,54.25
2022-12-09T09:57:57.544Z,52.13
2022-12-09T10:00:35.255Z,53.67
2022-12-09T10:03:11.870Z,53.58
2022-12-09T10:05:52.690Z,50.75
2022-12-09T10:11:28.688Z,60.22
2022-12-09T10:14:07.026Z,64.35
2022-12-09T10:17:02.911Z,69.63
2022-12-09T10:19:36.233Z,67.00
2022-12-09T10:22:23.141Z,70.10
2022-12-09T10:24:57.087Z,63.63
2022-12-09T10:28:02.349Z,64.97
2022-12-09T10:30:55.460Z,62.35
2022-12-09T10:33:36.574Z,70.28
2022-12-09T10:36:07.775Z,59.38
2022-12-09T10:38:40.684Z,53.65
2022-12-09T10:41:37.011Z,59.00
2022-12-09T10:44:19.710Z,52.35
2022-12-09T10:46:48.652Z,55.80
2022-12-09T10:49:21.212Z,55.35
2022-12-09T10:51:52.397Z,67.38
2022-12-09T10:54:44.929Z,63.22
2022-12-09T10:57:13.015Z,71.80
2022-12-09T10:59:58.627Z,78.45
2022-12-09T11:02:28.642Z,73.55
2022-12-09T11:05:17.248Z,63.67
2022-12-09T11:07:48.582Z,58.55
2022-12-09T11:10:21.122Z,58.75
2022-12-09T11:12:56.635Z,58.88
2022-12-09T11:15:38.902Z,54.65
2022-12-09T11:18:25.653Z,56.28
2022-12-09T11:21:04.888Z,56.60
2022-12-09T11:23:57.221Z,62.72
2022-12-09T11:26:40.183Z,49.90
2022-12-09T11:29:19.452Z,67.93
2022-12-09T11:31:50.845Z,66.13
2022-12-09T11:34:25.185Z,65.30
2022-12-09T11:36:56.612Z,61.05
2022-12-09T11:39:32.981Z,59.33
2022-12-09T11:42:18.548Z,57.60
2022-12-09T11:45:02.067Z,63.58
2022-12-09T11:48:13.513Z,61.80
2022-12-09T11:50:31.405Z,68.30
2022-12-09T11:53:20.766Z,58.10
2022-12-09T11:56:22.895Z,55.58
2022-12-09T11:58:56.268Z,58.50
2022-12-09T12:01:50.281Z,54.08
2022-12-09T12:04:52.741Z,52.28
2022-12-09T12:07:42.120Z,51.35
2022-12-09T12:10:50.317Z,48.88
2022-12-09T12:13:45.128Z,52.17
2022-12-09T12:16:28.456Z,49.53
2022-12-09T12:19:16.743Z,48.53
2022-12-09T12:22:33.591Z,50.70
2022-12-09T12:25:18.334Z,46.17
2022-12-09T12:27:51.345Z,47.47
2022-12-09T12:30:22.029Z,47.30
2022-12-09T12:35:59.501Z,47.63
2022-12-09T12:38:32.892Z,44.05
2022-12-09T12:41:19.272Z,46.45
2022-12-09T12:44:13.094Z,44.15
2022-12-09T12:46:56.518Z,40.85
2022-12-09T12:50:10.745Z,43.30
2022-12-09T12:52:57.090Z,39.00
2022-12-09T12:55:37.062Z,39.90
2022-12-09T12:58:38.317Z,46.03
2022-12-09T13:01:14.887Z,41.72
2022-12-09T13:04:15.421Z,44.97
2022-12-09T13:07:27.980Z,44.63
2022-12-09T13:10:07.401Z,40.53
2022-12-09T13:12:54.247Z,44.00
2022-12-09T13:15:42.165Z,39.78
2022-12-09T13:18:39.904Z,41.47
2022-12-09T13:21:08.994Z,44.63
2022-12-09T13:24:05.529Z,47.28
2022-12-09T13:26:48.772Z,40.97
2022-12-09T13:29:22.532Z,43.80
2022-12-09T13:32:20.698Z,42.83
2022-12-09T13:34:55.516Z,43.17
2022-12-09T13:37:54.930Z,42.90
2022-12-09T13:40:35.402Z,42.53
2022-12-09T13:43:03.013Z,41.88
2022-12-09T13:45:35.404Z,45.58
2022-12-09T13:48:17.045Z,43.60
2022-12-09T13:50:58.738Z,38.53
2022-12-09T13:53:45.673Z,46.17
2022-12-09T13:56:19.837Z,43.97
2022-12-09T13:58:57.946Z,44.65
2022-12-09T14:01:37.488Z,36.60
2022-12-09T14:04:21.193Z,40.90
2022-12-09T14:07:16.479Z,39.78
2022-12-09T14:09:52.007Z,39.60
2022-12-09T14:12:25.643Z,40.88
2022-12-09T14:14:58.562Z,39.20
2022-12-09T14:17:27.162Z,41.20
2022-12-09T14:20:24.492Z,46.58
2022-12-09T14:23:07.344Z,39.63
2022-12-09T14:25:38.061Z,36.60
2022-12-09T14:28:15.190Z,41.45
2022-12-09T14:30:52.249Z,35.88
2022-12-09T14:33:32.597Z,44.13
2022-12-09T14:36:06.801Z,41.72
2022-12-09T14:42:09.254Z,42.53
2022-12-09T14:44:41.552Z,39.85
2022-12-09T14:47:31.397Z,46.97
2022-12-09T14:50:37.532Z,42.77
2022-12-09T14:53:23.959Z,42.72
2022-12-09T14:55:52.084Z,43.70
2022-12-09T14:58:22.668Z,45.95
2022-12-09T15:03:35.481Z,48.75
2022-12-09T15:06:18.703Z,46.47
2022-12-09T15:08:47.423Z,46.15
2022-12-09T15:11:21.991Z,45.40
2022-12-09T15:13:52.530Z,47.30
2022-12-09T15:16:25.866Z,46.88
2022-12-09T15:18:54.523Z,49.15
2022-12-09T15:21:30.582Z,43.13
2022-12-09T15:24:00.039Z,48.67
2022-12-09T15:26:30.638Z,49.42
2022-12-09T15:31:30.002Z,51.08
2022-12-09T15:36:49.655Z,47.85
2022-12-09T15:39:29.801Z,42.92
2022-12-09T15:42:07.198Z,45.17
2022-12-09T15:44:47.229Z,45.30
2022-12-09T15:47:33.290Z,47.92
2022-12-09T15:50:18.311Z,46.72
2022-12-09T15:52:49.346Z,48.75
2022-12-09T15:55:23.038Z,47.72
2022-12-09T15:57:53.647Z,45.13
2022-12-09T16:03:08.775Z,43.20
2022-12-09T16:05:42.173Z,49.80
2022-12-09T16:08:10.498Z,53.20
2022-12-09T16:10:56.115Z,47.17
2022-12-09T16:13:23.973Z,50.05
2022-12-09T16:15:55.430Z,52.00
2022-12-09T16:18:27.656Z,48.40
2022-12-09T16:21:20.067Z,52.03
2022-12-09T16:23:51.440Z,52.15
2022-12-09T16:26:37.301Z,48.70
2022-12-09T16:29:16.895Z,54.95
2022-12-09T16:31:45.501Z,53.00
2022-12-09T16:34:23.710Z,52.85
2022-12-09T16:36:56.992Z,52.38
2022-12-09T16:39:24.697Z,54.03
2022-12-09T16:41:52.354Z,45.08
2022-12-09T16:44:29.520Z,55.20
2022-12-09T16:47:16.488Z,56.63
2022-12-09T16:49:58.167Z,49.22
2022-12-09T16:52:27.993Z,57.78
2022-12-09T16:54:55.956Z,54.47
2022-12-09T16:57:24.188Z,48.50
2022-12-09T16:59:53.505Z,49.35
2022-12-09T17:02:30.169Z,57.90
2022-12-09T17:04:58.638Z,50.95
2022-12-09T17:07:41.279Z,53.47
2022-12-09T17:10:13.224Z,54.65
2022-12-09T17:12:45.369Z,60.30
2022-12-09T17:15:20.521Z,62.58
2022-12-09T17:17:49.194Z,56.33
2022-12-09T17:20:17.217Z,55.45
2022-12-09T17:22:45.049Z,59.30
2022-12-09T17:25:12.854Z,54.17
2022-12-09T17:27:40.518Z,59.35
2022-12-09T17:30:09.090Z,62.55
2022-12-09T17:32:37.793Z,62.60
2022-12-09T17:35:12.114Z,60.35
2022-12-09T17:37:40.899Z,64.47
2022-12-09T17:40:09.861Z,57.17
2022-12-09T17:42:38.663Z,63.30
2022-12-09T17:45:07.228Z,54.10
2022-12-09T17:47:35.086Z,55.65
2022-12-09T17:50:03.887Z,52.92
2022-12-09T17:52:31.961Z,61.20
2022-12-09T17:55:01.275Z,62.70
2022-12-09T17:57:29.038Z,62.47
2022-12-09T17:59:56.776Z,56.63
2022-12-09T18:02:28.690Z,64.90
2022-12-09T18:04:56.471Z,62.20
2022-12-09T18:07:25.124Z,65.80
2022-12-09T18:09:54.666Z,70.85
2022-12-09T18:12:23.084Z,52.03
2022-12-09T18:14:51.266Z,62.22
2022-12-09T18:17:19.062Z,62.05
2022-12-09T18:19:47.077Z,58.80
2022-12-09T18:24:44.979Z,60.75
2022-12-09T18:27:12.680Z,61.22
2022-12-09T18:29:43.021Z,57.97
2022-12-09T18:32:10.744Z,62.63
2022-12-09T18:34:38.779Z,65.63
2022-12-09T18:37:06.432Z,66.72
2022-12-09T18:39:34.201Z,64.50
2022-12-09T18:42:02.154Z,69.10
2022-12-09T18:44:32.269Z,65.20
2022-12-09T18:47:00.470Z,66.32
2022-12-09T18:52:16.955Z,74.88
2022-12-09T18:54:50.144Z,74.43
2022-12-09T18:57:20.446Z,66.97
2022-12-09T18:59:50.393Z,67.38
2022-12-09T19:02:27.414Z,69.00
2022-12-09T19:04:58.520Z,66.00
2022-12-09T19:07:31.968Z,70.18
2022-12-09T19:10:02.482Z,65.05
2022-12-09T19:12:46.323Z,70.00
2022-12-09T19:15:15.127Z,64.85
2022-12-09T19:17:43.340Z,64.65
2022-12-09T19:20:41.448Z,67.95
2022-12-09T19:23:09.443Z,63.00
2022-12-09T19:25:41.306Z,67.15
2022-12-09T19:28:14.345Z,68.18
2022-12-09T19:30:48.142Z,76.38
2022-12-09T19:33:17.496Z,80.80
2022-12-09T19:35:45.237Z,72.40
2022-12-09T19:38:13.117Z,59.13
2022-12-09T19:40:40.876Z,70.72
2022-12-09T19:43:25.002Z,73.03
2022-12-09T19:45:56.015Z,65.30
2022-12-09T19:48:26.828Z,69.43
2022-12-09T19:51:08.898Z,74.15
2022-12-09T19:53:39.901Z,67.78
2022-12-09T19:56:11.829Z,73.38
2022-12-09T19:58:57.424Z,67.68
2022-12-09T20:01:37.209Z,74.90
2022-12-09T20:07:08.350Z,75.65
2022-12-09T20:09:39.922Z,89.03
2022-12-09T20:12:07.727Z,81.43
2022-12-09T20:14:35.883Z,84.72
2022-12-09T20:17:06.179Z,74.68
2022-12-09T20:19:36.857Z,78.13
2022-12-09T20:22:04.931Z,74.82
2022-12-09T20:24:35.245Z,69.50
2022-12-09T20:27:03.240Z,75.82
2022-12-09T20:29:36.939Z,73.93
2022-12-09T20:32:07.857Z,70.32
2022-12-09T20:34:36.261Z,80.72
2022-12-09T20:37:09.354Z,69.57
2022-12-09T20:39:37.329Z,74.78
2022-12-09T20:42:06.456Z,72.40
2022-12-09T20:44:38.034Z,71.72
2022-12-09T20:47:09.028Z,70.97
2022-12-09T20:49:36.908Z,72.00
2022-12-09T20:52:07.227Z,64.65
2022-12-09T20:54:40.373Z,72.82
2022-12-09T20:57:08.225Z,74.25
2022-12-09T20:59:36.237Z,71.47
2022-12-09T21:02:12.187Z,71.72
2022-12-09T21:04:43.828Z,69.72
2022-12-09T21:07:13.958Z,66.88
2022-12-09T21:09:45.285Z,72.55
2022-12-09T21:12:16.160Z,71.25
2022-12-09T21:14:44.222Z,74.55
2022-12-09T21:17:12.277Z,64.88
2022-12-09T21:19:40.328Z,68.05
2022-12-09T21:22:12.661Z,72.35
2022-12-09T21:24:40.501Z,67.50
2022-12-09T21:27:08.265Z,59.22
2022-12-09T21:29:36.033Z,67.28
2022-12-09T21:32:03.803Z,67.68
2022-12-09T21:34:31.775Z,67.70
2022-12-09T21:36:59.486Z,84.00
2022-12-09T21:39:28.123Z,77.22
2022-12-09T21:41:55.896Z,80.05
2022-12-09T21:44:25.525Z,80.03
2022-12-09T21:46:53.718Z,79.60
2022-12-09T21:49:21.503Z,68.72
2022-12-09T21:51:49.449Z,75.55
2022-12-09T21:54:17.237Z,78.47
2022-12-09T21:56:45.060Z,73.75
2022-12-09T21:59:12.863Z,70.65
2022-12-09T22:01:42.117Z,62.17
2022-12-09T22:04:16.304Z,67.95
2022-12-09T22:06:49.318Z,63.03
2022-12-09T22:09:18.784Z,63.38
2022-12-09T22:11:46.553Z,75.50
2022-12-09T22:14:14.409Z,66.80
2022-12-09T22:16:44.596Z,59.78
2022-12-09T22:19:16.605Z,87.72
2022-12-09T22:21:44.688Z,59.15
2022-12-09T22:24:14.340Z,57.20
2022-12-09T22:26:43.714Z,55.03
2022-12-09T22:29:14.145Z,57.30
2022-12-09T22:34:20.494Z,58.40
2022-12-09T22:36:49.247Z,62.50
2022-12-09T22:39:24.683Z,65.43
2022-12-09T22:41:53.907Z,62.90
2022-12-09T22:44:21.615Z,60.08
2022-12-09T22:46:50.563Z,58.40
2022-12-09T22:49:20.033Z,58.58
2022-12-09T22:51:47.869Z,58.75
2022-12-09T22:54:15.891Z,59.22
2022-12-09T22:56:44.216Z,61.08
2022-12-09T22:59:23.918Z,57.65
2022-12-09T23:01:51.962Z,58.97
2022-12-09T23:04:23.449Z,68.38
2022-12-09T23:06:51.578Z,59.45
2022-12-09T23:09:21.994Z,60.35
2022-12-09T23:14:21.135Z,63.58
2022-12-09T23:16:48.874Z,63.15
2022-12-09T23:19:16.763Z,57.80
2022-12-09T23:21:44.536Z,59.20
2022-12-09T23:24:18.485Z,62.60
2022-12-09T23:26:50.529Z,69.63
2022-12-09T23:29:18.283Z,71.22
2022-12-09T23:31:46.012Z,66.65
2022-12-09T23:34:15.122Z,63.72
2022-12-09T23:36:44.142Z,66.50
2022-12-09T23:39:15.334Z,61.78
2022-12-09T23:41:44.725Z,66.05
2022-12-09T23:44:15.982Z,57.15
2022-12-09T23:46:44.294Z,56.60
2022-12-09T23:49:12.432Z,59.92
2022-12-09T23:51:43.517Z,67.20
2022-12-09T23:54:14.721Z,68.22
2022-12-09T23:56:48.002Z,65.90
2022-12-09T23:59:17.927Z,72.50
